createdAt,value
2022-11-16T00:02:28.447Z,6.64
2022-11-16T00:04:57.311Z,6.70
2022-11-16T00:07:25.338Z,6.70
2022-11-16T00:09:53.594Z,6.70
2022-11-16T00:12:21.751Z,6.70
2022-11-16T00:14:49.837Z,6.70
2022-11-16T00:17:17.777Z,6.70
2022-11-16T00:19:47.451Z,6.70
2022-11-16T00:22:15.405Z,6.60
2022-11-16T00:24:43.347Z,6.60
2022-11-16T00:27:11.321Z,6.60
2022-11-16T00:29:39.310Z,6.60
2022-11-16T00:32:07.689Z,6.60
2022-11-16T00:34:35.717Z,6.58
2022-11-16T00:37:03.784Z,6.58
2022-11-16T00:39:31.798Z,6.60
2022-11-16T00:41:59.739Z,6.60
2022-11-16T00:44:27.783Z,6.60
2022-11-16T00:46:55.757Z,6.60
2022-11-16T00:49:23.978Z,6.60
2022-11-16T00:51:51.947Z,6.60
2022-11-16T00:54:20.054Z,6.66
2022-11-16T00:56:47.985Z,6.60
2022-11-16T00:59:15.933Z,6.70
2022-11-16T01:01:44.058Z,6.68
2022-11-16T01:04:12.212Z,6.68
2022-11-16T01:06:40.168Z,6.64
2022-11-16T01:09:08.097Z,6.60
2022-11-16T01:11:55.563Z,6.60
2022-11-16T01:14:23.511Z,6.60
2022-11-16T01:16:51.753Z,6.60
2022-11-16T01:19:22.170Z,6.60
2022-11-16T01:21:50.238Z,6.60
2022-11-16T01:24:18.321Z,6.60
2022-11-16T01:26:46.635Z,6.60
2022-11-16T01:29:14.992Z,6.60
2022-11-16T01:31:46.192Z,6.70
2022-11-16T01:34:14.165Z,6.70
2022-11-16T01:36:42.941Z,6.70
2022-11-16T01:39:13.538Z,6.64
2022-11-16T01:41:49.089Z,6.70
2022-11-16T01:44:33.185Z,6.70
2022-11-16T01:47:17.056Z,6.70
2022-11-16T01:49:54.549Z,6.70
2022-11-16T01:52:32.675Z,6.70
2022-11-16T01:55:02.288Z,6.78
2022-11-16T01:57:42.589Z,6.80
2022-11-16T02:00:13.281Z,6.80
2022-11-16T02:02:49.678Z,6.80
2022-11-16T02:05:55.530Z,6.80
2022-11-16T02:09:07.800Z,6.82
2022-11-16T02:12:05.387Z,6.80
2022-11-16T02:15:11.901Z,6.80
2022-11-16T02:18:14.870Z,6.80
2022-11-16T02:20:47.641Z,6.78
2022-11-16T02:23:53.453Z,6.70
2022-11-16T02:27:10.420Z,6.66
2022-11-16T02:29:47.697Z,6.60
2022-11-16T02:32:39.644Z,6.58
2022-11-16T02:35:10.256Z,6.50
2022-11-16T02:37:45.770Z,6.50
2022-11-16T02:40:17.624Z,6.50
2022-11-16T02:43:05.002Z,6.50
2022-11-16T02:45:38.900Z,6.50
2022-11-16T02:48:17.170Z,6.50
2022-11-16T02:50:46.243Z,6.58
2022-11-16T02:53:15.285Z,6.60
2022-11-16T02:55:43.937Z,6.60
2022-11-16T02:58:18.127Z,6.66
2022-11-16T03:01:22.916Z,6.70
2022-11-16T03:04:21.613Z,6.70
2022-11-16T03:06:51.489Z,6.80
2022-11-16T03:09:27.239Z,6.80
2022-11-16T03:11:59.481Z,6.80
2022-11-16T03:14:47.723Z,6.80
2022-11-16T03:17:30.023Z,6.88
2022-11-16T03:20:13.708Z,6.80
2022-11-16T03:22:44.583Z,6.80
2022-11-16T03:25:18.073Z,6.82
2022-11-16T03:28:11.736Z,6.80
2022-11-16T03:31:09.324Z,6.80
2022-11-16T03:33:44.588Z,6.80
2022-11-16T03:36:32.367Z,6.80
2022-11-16T03:39:28.590Z,6.80
2022-11-16T03:41:59.752Z,6.80
2022-11-16T03:44:29.350Z,6.80
2022-11-16T03:46:57.344Z,6.78
2022-11-16T03:49:25.858Z,6.80
2022-11-16T03:51:54.451Z,6.80
2022-11-16T03:54:22.848Z,6.80
2022-11-16T03:56:50.675Z,6.80
2022-11-16T03:59:19.323Z,6.80
2022-11-16T04:01:48.148Z,6.80
2022-11-16T04:04:35.202Z,6.70
2022-11-16T04:07:22.819Z,6.70
2022-11-16T04:10:09.557Z,6.70
2022-11-16T04:13:03.041Z,6.70
2022-11-16T04:15:49.589Z,6.60
2022-11-16T04:18:36.552Z,6.60
2022-11-16T04:21:24.692Z,6.60
2022-11-16T04:24:11.294Z,6.60
2022-11-16T04:27:01.885Z,6.68
2022-11-16T04:29:30.203Z,6.70
2022-11-16T04:32:17.317Z,6.60
2022-11-16T04:35:04.000Z,6.60
2022-11-16T04:37:52.497Z,6.60
2022-11-16T04:40:29.684Z,6.60
2022-11-16T04:43:03.977Z,6.60
2022-11-16T04:45:55.647Z,6.60
2022-11-16T04:48:26.211Z,6.60
2022-11-16T04:50:54.873Z,6.60
2022-11-16T04:53:27.054Z,6.60
2022-11-16T04:56:07.441Z,6.54
2022-11-16T04:58:35.836Z,6.52
2022-11-16T05:01:04.232Z,6.54
2022-11-16T05:03:32.150Z,6.60
2022-11-16T05:06:00.688Z,6.52
2022-11-16T05:08:29.085Z,6.50
2022-11-16T05:10:59.772Z,6.52
2022-11-16T05:13:27.789Z,6.52
2022-11-16T05:15:55.671Z,6.52
2022-11-16T05:18:23.767Z,6.54
2022-11-16T05:21:00.790Z,6.60
2022-11-16T05:23:49.854Z,6.60
2022-11-16T05:26:19.281Z,6.60
2022-11-16T05:28:47.172Z,6.60
2022-11-16T05:31:15.303Z,6.60
2022-11-16T05:33:44.096Z,6.60
2022-11-16T05:36:12.173Z,6.60
2022-11-16T05:38:40.438Z,6.60
2022-11-16T05:41:08.954Z,6.54
2022-11-16T05:43:37.245Z,6.50
2022-11-16T05:46:15.793Z,6.52
2022-11-16T05:48:44.262Z,6.60
2022-11-16T05:51:13.386Z,6.60
2022-11-16T05:53:41.310Z,6.60
2022-11-16T05:56:09.479Z,6.60
2022-11-16T05:58:39.698Z,6.60
2022-11-16T06:01:08.250Z,6.60
2022-11-16T06:03:36.631Z,6.62
2022-11-16T06:06:05.846Z,6.70
2022-11-16T06:08:34.322Z,6.70
2022-11-16T06:11:06.646Z,6.70
2022-11-16T06:13:36.362Z,6.70
2022-11-16T06:16:06.124Z,6.70
2022-11-16T06:18:45.058Z,6.70
2022-11-16T06:21:14.832Z,6.70
2022-11-16T06:23:43.222Z,6.70
2022-11-16T06:26:11.730Z,6.70
2022-11-16T06:28:40.357Z,6.70
2022-11-16T06:31:08.518Z,6.72
2022-11-16T06:33:40.225Z,6.80
2022-11-16T06:36:13.988Z,6.74
2022-11-16T06:38:42.491Z,6.70
2022-11-16T06:41:10.634Z,6.70
2022-11-16T06:43:43.365Z,6.80
2022-11-16T06:46:11.565Z,6.80
2022-11-16T06:48:40.201Z,6.80
2022-11-16T06:51:11.631Z,6.86
2022-11-16T06:53:39.497Z,6.90
2022-11-16T06:56:07.672Z,6.80
2022-11-16T06:58:42.635Z,6.84
2022-11-16T07:01:12.675Z,6.80
2022-11-16T07:03:42.152Z,6.80
2022-11-16T07:06:12.644Z,6.80
2022-11-16T07:08:42.411Z,6.80
2022-11-16T07:11:11.312Z,6.80
2022-11-16T07:13:39.971Z,6.80
2022-11-16T07:16:10.869Z,6.80
2022-11-16T07:18:43.205Z,6.80
2022-11-16T07:21:15.902Z,6.80
2022-11-16T07:23:44.848Z,6.80
2022-11-16T07:26:16.173Z,6.80
2022-11-16T07:28:54.594Z,6.90
2022-11-16T07:31:23.239Z,6.90
2022-11-16T07:34:10.935Z,6.98
2022-11-16T07:36:47.831Z,6.96
2022-11-16T07:39:15.792Z,6.90
2022-11-16T07:41:45.259Z,6.90
2022-11-16T07:44:26.713Z,6.90
2022-11-16T07:47:07.925Z,6.90
2022-11-16T07:49:36.593Z,6.90
2022-11-16T07:52:12.087Z,6.90
2022-11-16T07:54:58.773Z,6.90
2022-11-16T07:57:28.419Z,6.90
2022-11-16T07:59:57.223Z,6.92
2022-11-16T08:02:26.113Z,6.90
2022-11-16T08:04:54.517Z,6.90
2022-11-16T08:07:25.769Z,6.90
2022-11-16T08:09:56.170Z,6.98
2022-11-16T08:12:24.605Z,7.00
2022-11-16T08:14:53.364Z,7.00
2022-11-16T08:17:21.290Z,6.90
2022-11-16T08:19:50.468Z,6.90
2022-11-16T08:22:19.623Z,6.90
2022-11-16T08:24:47.584Z,6.90
2022-11-16T08:27:17.506Z,6.90
2022-11-16T08:29:47.040Z,6.82
2022-11-16T08:32:14.991Z,6.82
2022-11-16T08:34:44.357Z,6.80
2022-11-16T08:37:12.163Z,6.84
2022-11-16T08:39:43.403Z,6.80
2022-11-16T08:42:11.275Z,6.84
2022-11-16T08:44:39.484Z,6.80
2022-11-16T08:47:10.824Z,6.88
2022-11-16T08:49:49.715Z,6.90
2022-11-16T08:52:18.736Z,6.90
2022-11-16T08:54:47.209Z,6.90
2022-11-16T08:57:15.201Z,6.90
2022-11-16T08:59:43.551Z,6.80
2022-11-16T09:02:14.095Z,6.84
2022-11-16T09:04:42.396Z,6.90
2022-11-16T09:07:10.484Z,6.90
2022-11-16T09:09:38.610Z,6.80
2022-11-16T09:12:06.742Z,6.90
2022-11-16T09:14:34.557Z,6.90
2022-11-16T09:17:02.516Z,6.90
2022-11-16T09:19:30.388Z,6.90
2022-11-16T09:21:58.251Z,6.90
2022-11-16T09:24:26.089Z,7.00
2022-11-16T09:26:56.750Z,7.00
2022-11-16T09:29:27.585Z,7.00
2022-11-16T09:31:55.865Z,7.00
2022-11-16T09:34:24.450Z,7.00
2022-11-16T09:36:52.463Z,7.00
2022-11-16T09:39:30.931Z,7.00
2022-11-16T09:42:50.919Z,7.10
2022-11-16T09:45:27.415Z,7.14
2022-11-16T09:48:02.341Z,7.20
2022-11-16T09:50:34.974Z,7.20
2022-11-16T09:53:18.540Z,7.20
2022-11-16T09:55:53.894Z,7.20
2022-11-16T09:59:09.445Z,7.20
2022-11-16T10:01:50.377Z,7.20
2022-11-16T10:04:54.987Z,7.20
2022-11-16T10:07:41.972Z,7.10
2022-11-16T10:10:37.904Z,7.18
2022-11-16T10:13:19.824Z,7.20
2022-11-16T10:16:18.575Z,7.20
2022-11-16T10:18:57.803Z,7.10
2022-11-16T10:21:42.198Z,7.10
2022-11-16T10:24:35.824Z,7.02
2022-11-16T10:27:34.577Z,7.00
2022-11-16T10:30:12.497Z,7.00
2022-11-16T10:32:49.119Z,7.00
2022-11-16T10:35:23.211Z,7.00
2022-11-16T10:37:52.244Z,6.98
2022-11-16T10:40:26.731Z,7.00
2022-11-16T10:43:16.063Z,7.00
2022-11-16T10:46:06.300Z,7.00
2022-11-16T10:49:07.618Z,7.02
2022-11-16T10:51:35.503Z,7.10
2022-11-16T10:54:12.270Z,7.10
2022-11-16T10:56:45.403Z,7.10
2022-11-16T10:59:18.075Z,7.20
2022-11-16T11:01:51.086Z,7.20
2022-11-16T11:04:24.921Z,7.24
2022-11-16T11:07:24.625Z,7.30
2022-11-16T11:09:54.120Z,7.30
2022-11-16T11:12:40.067Z,7.40
2022-11-16T11:15:10.935Z,7.40
2022-11-16T11:17:44.285Z,7.40
2022-11-16T11:20:15.235Z,7.38
2022-11-16T11:22:49.994Z,7.40
2022-11-16T11:25:36.401Z,7.40
2022-11-16T11:28:19.887Z,7.40
2022-11-16T11:31:26.166Z,7.48
2022-11-16T11:34:16.301Z,7.44
2022-11-16T11:36:53.949Z,7.40
2022-11-16T11:39:21.867Z,7.40
2022-11-16T11:42:14.489Z,7.40
2022-11-16T11:44:58.770Z,7.40
2022-11-16T11:47:59.084Z,7.40
2022-11-16T11:50:53.133Z,7.44
2022-11-16T11:53:44.907Z,7.40
2022-11-16T11:56:14.642Z,7.44
2022-11-16T11:58:43.723Z,7.40
2022-11-16T12:01:25.593Z,7.46
2022-11-16T12:04:36.126Z,7.50
2022-11-16T12:07:35.523Z,7.50
2022-11-16T12:10:46.240Z,7.50
2022-11-16T12:13:35.510Z,7.50
2022-11-16T12:16:47.234Z,7.40
2022-11-16T12:19:48.392Z,7.50
2022-11-16T12:22:34.433Z,7.40
2022-11-16T12:25:28.342Z,7.42
2022-11-16T12:28:23.618Z,7.50
2022-11-16T12:31:11.983Z,7.40
2022-11-16T12:34:13.998Z,7.40
2022-11-16T12:37:20.871Z,7.40
2022-11-16T12:40:26.242Z,7.40
2022-11-16T12:43:28.116Z,7.30
2022-11-16T12:46:29.507Z,7.28
2022-11-16T12:49:34.443Z,7.20
2022-11-16T12:52:33.436Z,7.10
2022-11-16T12:55:28.474Z,6.90
2022-11-16T12:58:18.859Z,6.80
2022-11-16T13:01:18.618Z,6.70
2022-11-16T13:03:55.306Z,6.60
2022-11-16T13:06:36.650Z,6.50
2022-11-16T13:09:22.967Z,6.40
2022-11-16T13:11:58.242Z,6.40
2022-11-16T13:14:40.368Z,6.30
2022-11-16T13:17:10.710Z,6.30
2022-11-16T13:19:46.331Z,6.30
2022-11-16T13:22:23.872Z,6.30
2022-11-16T13:25:33.166Z,6.26
2022-11-16T13:28:17.506Z,6.20
2022-11-16T13:31:04.868Z,6.20
2022-11-16T13:33:50.989Z,6.10
2022-11-16T13:36:39.377Z,6.00
2022-11-16T13:39:08.497Z,6.00
2022-11-16T13:41:43.180Z,6.00
2022-11-16T13:44:14.499Z,5.90
2022-11-16T13:46:56.176Z,5.90
2022-11-16T13:49:37.941Z,5.80
2022-11-16T13:52:23.313Z,5.80
2022-11-16T13:54:55.697Z,5.70
2022-11-16T13:57:31.876Z,5.60
2022-11-16T14:00:02.668Z,5.54
2022-11-16T14:02:37.293Z,5.52
2022-11-16T14:05:40.686Z,5.58
2022-11-16T14:08:37.996Z,5.50
2022-11-16T14:11:28.593Z,5.50
2022-11-16T14:13:58.581Z,5.40
2022-11-16T14:16:26.527Z,5.40
2022-11-16T14:19:02.940Z,5.32
2022-11-16T14:22:07.440Z,5.30
2022-11-16T14:24:47.295Z,5.20
2022-11-16T14:27:58.797Z,5.20
2022-11-16T14:30:43.365Z,5.18
2022-11-16T14:33:23.765Z,5.10
2022-11-16T14:35:53.862Z,5.00
2022-11-16T14:38:34.393Z,5.00
2022-11-16T14:41:06.333Z,5.00
2022-11-16T14:43:45.753Z,5.00
2022-11-16T14:46:26.150Z,5.00
2022-11-16T14:48:59.297Z,4.94
2022-11-16T14:51:35.512Z,5.00
2022-11-16T14:54:41.529Z,5.00
2022-11-16T14:57:24.134Z,4.90
2022-11-16T15:00:21.780Z,4.80
2022-11-16T15:02:59.144Z,4.80
2022-11-16T15:05:35.786Z,4.80
2022-11-16T15:08:19.439Z,4.80
2022-11-16T15:10:52.404Z,4.80
2022-11-16T15:13:24.190Z,4.80
2022-11-16T15:16:16.325Z,4.80
2022-11-16T15:19:02.359Z,4.80
2022-11-16T15:21:30.366Z,4.80
2022-11-16T15:26:46.421Z,4.80
2022-11-16T15:29:19.322Z,4.70
2022-11-16T15:31:48.741Z,4.64
2022-11-16T15:34:19.030Z,4.60
2022-11-16T15:36:48.949Z,4.70
2022-11-16T15:39:21.841Z,4.70
2022-11-16T15:41:51.432Z,4.70
2022-11-16T15:44:22.420Z,4.80
2022-11-16T15:46:56.122Z,4.80
2022-11-16T15:49:40.579Z,4.80
2022-11-16T15:52:09.070Z,4.78
2022-11-16T15:54:56.026Z,4.78
2022-11-16T15:57:24.708Z,4.70
2022-11-16T15:59:56.849Z,4.70
2022-11-16T16:02:30.587Z,4.70
2022-11-16T16:04:58.717Z,4.70
2022-11-16T16:07:41.247Z,4.68
2022-11-16T16:10:18.147Z,4.66
2022-11-16T16:12:58.062Z,4.70
2022-11-16T16:15:33.965Z,4.70
2022-11-16T16:18:03.916Z,4.70
2022-11-16T16:20:33.017Z,4.70
2022-11-16T16:23:15.249Z,4.80
2022-11-16T16:25:49.979Z,4.80
2022-11-16T16:28:18.387Z,4.80
2022-11-16T16:30:46.411Z,4.90
2022-11-16T16:33:19.676Z,4.86
2022-11-16T16:35:49.820Z,4.80
2022-11-16T16:38:17.759Z,4.80
2022-11-16T16:40:45.686Z,4.90
2022-11-16T16:43:13.607Z,4.90
2022-11-16T16:45:43.854Z,4.90
2022-11-16T16:48:15.044Z,4.90
2022-11-16T16:50:42.876Z,4.92
2022-11-16T16:53:12.832Z,4.92
2022-11-16T16:55:42.914Z,4.92
2022-11-16T16:58:13.814Z,4.90
2022-11-16T17:00:42.371Z,4.96
2022-11-16T17:03:10.346Z,4.96
2022-11-16T17:05:38.739Z,5.00
2022-11-16T17:08:06.844Z,5.00
2022-11-16T17:10:36.969Z,5.00
2022-11-16T17:13:04.843Z,4.94
2022-11-16T17:15:32.727Z,4.90
2022-11-16T17:18:00.601Z,4.90
2022-11-16T17:20:28.499Z,5.00
2022-11-16T17:22:56.598Z,5.00
2022-11-16T17:25:24.468Z,5.00
2022-11-16T17:27:52.331Z,5.00
2022-11-16T17:30:20.306Z,5.00
2022-11-16T17:32:48.183Z,5.00
2022-11-16T17:35:16.272Z,5.00
2022-11-16T17:37:44.072Z,5.00
2022-11-16T17:40:12.695Z,5.00
2022-11-16T17:42:40.940Z,5.00
2022-11-16T17:45:09.419Z,5.00
2022-11-16T17:47:37.262Z,5.00
2022-11-16T17:50:05.785Z,5.00
2022-11-16T17:52:33.573Z,5.00
2022-11-16T17:55:01.471Z,5.00
2022-11-16T17:57:29.332Z,5.02
2022-11-16T17:59:57.178Z,5.00
2022-11-16T18:02:25.190Z,5.00
2022-11-16T18:04:53.049Z,5.00
2022-11-16T18:07:21.011Z,5.00
2022-11-16T18:09:50.038Z,5.00
2022-11-16T18:12:18.057Z,4.90
2022-11-16T18:15:06.417Z,4.96
2022-11-16T18:17:34.833Z,5.00
2022-11-16T18:20:04.828Z,4.90
2022-11-16T18:22:32.648Z,4.90
2022-11-16T18:25:00.624Z,4.90
2022-11-16T18:27:28.506Z,4.90
2022-11-16T18:29:56.450Z,4.90
2022-11-16T18:32:24.291Z,4.90
2022-11-16T18:34:53.089Z,4.90
2022-11-16T18:37:20.912Z,4.86
2022-11-16T18:39:48.749Z,4.80
2022-11-16T18:42:16.604Z,4.80
2022-11-16T18:44:45.953Z,4.80
2022-11-16T18:47:13.778Z,4.70
2022-11-16T18:49:41.716Z,4.70
2022-11-16T18:52:09.772Z,4.70
2022-11-16T18:54:37.892Z,4.70
2022-11-16T18:57:05.878Z,4.74
2022-11-16T18:59:35.329Z,4.70
2022-11-16T19:02:03.222Z,4.70
2022-11-16T19:04:31.135Z,4.70
2022-11-16T19:06:59.153Z,4.72
2022-11-16T19:09:27.910Z,4.80
2022-11-16T19:11:55.809Z,4.80
2022-11-16T19:14:23.665Z,4.80
2022-11-16T19:16:56.945Z,4.80
2022-11-16T19:19:27.722Z,4.80
2022-11-16T19:21:57.038Z,4.80
2022-11-16T19:24:24.943Z,4.80
2022-11-16T19:26:52.872Z,4.80
2022-11-16T19:29:20.712Z,4.72
2022-11-16T19:31:48.845Z,4.72
2022-11-16T19:34:16.720Z,4.78
2022-11-16T19:36:44.828Z,4.70
2022-11-16T19:39:12.695Z,4.70
2022-11-16T19:41:40.691Z,4.70
2022-11-16T19:44:08.553Z,4.70
2022-11-16T19:46:36.617Z,4.70
2022-11-16T19:49:04.667Z,4.70
2022-11-16T19:51:33.637Z,4.70
2022-11-16T19:54:02.749Z,4.78
2022-11-16T19:56:31.191Z,4.70
2022-11-16T19:58:59.093Z,4.70
2022-11-16T20:01:29.551Z,4.70
2022-11-16T20:04:00.908Z,4.70
2022-11-16T20:06:32.493Z,4.70
2022-11-16T20:09:08.730Z,4.70
2022-11-16T20:11:40.117Z,4.70
2022-11-16T20:14:11.777Z,4.70
2022-11-16T20:16:43.207Z,4.70
2022-11-16T20:19:11.572Z,4.70
2022-11-16T20:21:42.337Z,4.70
2022-11-16T20:24:16.069Z,4.70
2022-11-16T20:26:47.078Z,4.70
2022-11-16T20:29:18.093Z,4.80
2022-11-16T20:31:46.329Z,4.70
2022-11-16T20:34:17.568Z,4.80
2022-11-16T20:36:47.290Z,4.76
2022-11-16T20:39:20.221Z,4.70
2022-11-16T20:41:49.592Z,4.70
2022-11-16T20:44:21.119Z,4.72
2022-11-16T20:46:53.290Z,4.70
2022-11-16T20:49:21.293Z,4.70
2022-11-16T20:51:51.048Z,4.80
2022-11-16T20:54:18.991Z,4.80
2022-11-16T20:56:49.641Z,4.72
2022-11-16T20:59:17.796Z,4.72
2022-11-16T21:01:48.156Z,4.80
2022-11-16T21:04:16.257Z,4.70
2022-11-16T21:06:44.776Z,4.80
2022-11-16T21:09:15.603Z,4.74
2022-11-16T21:12:02.084Z,4.80
2022-11-16T21:14:32.333Z,4.80
2022-11-16T21:17:00.308Z,4.86
2022-11-16T21:19:29.745Z,4.80
2022-11-16T21:21:57.567Z,4.80
2022-11-16T21:24:27.527Z,4.80
2022-11-16T21:26:55.434Z,4.84
2022-11-16T21:29:26.011Z,4.86
2022-11-16T21:31:53.979Z,4.80
2022-11-16T21:34:23.604Z,4.80
2022-11-16T21:36:52.341Z,4.80
2022-11-16T21:39:20.214Z,4.76
2022-11-16T21:41:48.183Z,4.70
2022-11-16T21:44:16.078Z,4.70
2022-11-16T21:46:44.024Z,4.70
2022-11-16T21:49:11.906Z,4.80
2022-11-16T21:51:39.886Z,4.70
2022-11-16T21:54:10.171Z,4.80
2022-11-16T21:56:38.155Z,4.80
2022-11-16T21:59:06.021Z,4.80
2022-11-16T22:01:54.196Z,4.80
2022-11-16T22:04:40.658Z,4.80
2022-11-16T22:07:32.832Z,4.80
2022-11-16T22:10:01.632Z,4.70
2022-11-16T22:12:30.131Z,4.70
2022-11-16T22:14:58.857Z,4.70
2022-11-16T22:17:27.498Z,4.78
2022-11-16T22:19:55.596Z,4.78
2022-11-16T22:22:24.043Z,4.70
2022-11-16T22:24:52.767Z,4.70
2022-11-16T22:27:21.262Z,4.70
2022-11-16T22:29:49.324Z,4.70
2022-11-16T22:32:17.454Z,4.76
2022-11-16T22:34:45.622Z,4.70
2022-11-16T22:37:13.562Z,4.80
2022-11-16T22:39:41.700Z,4.80
2022-11-16T22:42:11.467Z,4.80
2022-11-16T22:44:39.569Z,4.80
2022-11-16T22:47:09.535Z,4.80
2022-11-16T22:49:37.428Z,4.80
2022-11-16T22:52:05.744Z,4.70
2022-11-16T22:54:34.737Z,4.70
2022-11-16T22:57:03.546Z,4.70
2022-11-16T22:59:32.069Z,4.72
2022-11-16T23:02:01.102Z,4.70
2022-11-16T23:04:29.184Z,4.70
2022-11-16T23:06:57.430Z,4.70
2022-11-16T23:09:25.476Z,4.70
2022-11-16T23:12:12.198Z,4.80
2022-11-16T23:14:58.698Z,4.80
2022-11-16T23:17:26.775Z,4.80
2022-11-16T23:20:17.414Z,4.80
2022-11-16T23:23:04.381Z,4.74
2022-11-16T23:25:51.504Z,4.74
2022-11-16T23:28:20.417Z,4.70
2022-11-16T23:30:48.400Z,4.70
2022-11-16T23:33:16.429Z,4.70
2022-11-16T23:35:44.450Z,4.70
2022-11-16T23:38:12.531Z,4.62
2022-11-16T23:40:40.842Z,4.60
2022-11-16T23:43:29.393Z,4.70
2022-11-16T23:45:57.361Z,4.60
2022-11-16T23:48:25.268Z,4.60
2022-11-16T23:50:53.301Z,4.60
2022-11-16T23:53:21.267Z,4.60
2022-11-16T23:55:49.349Z,4.60
2022-11-16T23:58:17.323Z,4.60
